sensor_id;sensor_type;location;lat;lon;timestamp;temperature;humidity
5980;DHT22;3016;50.308;8.258;2023-05-10T00:02:35;12.80;91.70
5980;DHT22;3016;50.308;8.258;2023-05-10T00:05:36;12.80;91.60
5980;DHT22;3016;50.308;8.258;2023-05-10T00:08:37;12.70;91.30
5980;DHT22;3016;50.308;8.258;2023-05-10T00:11:37;12.70;91.60
5980;DHT22;3016;50.308;8.258;2023-05-10T00:14:38;12.70;91.10
5980;DHT22;3016;50.308;8.258;2023-05-10T00:17:39;12.70;91.30
5980;DHT22;3016;50.308;8.258;2023-05-10T00:20:40;12.70;91.40
5980;DHT22;3016;50.308;8.258;2023-05-10T00:23:41;12.60;91.10
5980;DHT22;3016;50.308;8.258;2023-05-10T00:26:41;12.60;91.10
5980;DHT22;3016;50.308;8.258;2023-05-10T00:29:42;12.60;90.70
5980;DHT22;3016;50.308;8.258;2023-05-10T00:32:43;12.60;90.60
5980;DHT22;3016;50.308;8.258;2023-05-10T00:35:43;12.60;91.10
5980;DHT22;3016;50.308;8.258;2023-05-10T00:38:44;12.50;90.70
5980;DHT22;3016;50.308;8.258;2023-05-10T00:41:46;12.50;90.90
5980;DHT22;3016;50.308;8.258;2023-05-10T00:44:46;12.60;91.20
5980;DHT22;3016;50.308;8.258;2023-05-10T00:47:47;12.50;90.80
5980;DHT22;3016;50.308;8.258;2023-05-10T00:50:48;12.50;90.70
5980;DHT22;3016;50.308;8.258;2023-05-10T00:53:49;12.50;90.70
5980;DHT22;3016;50.308;8.258;2023-05-10T00:56:51;12.50;90.60
5980;DHT22;3016;50.308;8.258;2023-05-10T00:59:52;12.50;90.70
5980;DHT22;3016;50.308;8.258;2023-05-10T01:02:53;12.50;90.80
5980;DHT22;3016;50.308;8.258;2023-05-10T01:05:54;12.50;91.00
5980;DHT22;3016;50.308;8.258;2023-05-10T01:08:56;12.50;90.90
5980;DHT22;3016;50.308;8.258;2023-05-10T01:11:56;12.40;90.60
5980;DHT22;3016;50.308;8.258;2023-05-10T01:14:57;12.40;90.40
5980;DHT22;3016;50.308;8.258;2023-05-10T01:17:58;12.30;89.70
5980;DHT22;3016;50.308;8.258;2023-05-10T01:34:25;12.30;91.10
5980;DHT22;3016;50.308;8.258;2023-05-10T01:41:39;12.20;90.50
5980;DHT22;3016;50.308;8.258;2023-05-10T01:48:23;12.10;90.70
5980;DHT22;3016;50.308;8.258;2023-05-10T01:51:27;12.20;90.80
5980;DHT22;3016;50.308;8.258;2023-05-10T01:54:33;12.20;90.90
5980;DHT22;3016;50.308;8.258;2023-05-10T01:57:35;12.10;90.40
5980;DHT22;3016;50.308;8.258;2023-05-10T02:00:40;12.10;90.90
5980;DHT22;3016;50.308;8.258;2023-05-10T02:03:43;12.20;91.10
5980;DHT22;3016;50.308;8.258;2023-05-10T02:06:45;12.20;90.90
5980;DHT22;3016;50.308;8.258;2023-05-10T02:09:48;12.10;90.40
5980;DHT22;3016;50.308;8.258;2023-05-10T02:12:49;12.10;90.70
5980;DHT22;3016;50.308;8.258;2023-05-10T02:15:51;12.20;90.80
5980;DHT22;3016;50.308;8.258;2023-05-10T02:18:54;12.10;90.50
5980;DHT22;3016;50.308;8.258;2023-05-10T02:21:57;12.10;90.30
5980;DHT22;3016;50.308;8.258;2023-05-10T02:25:00;12.10;90.40
5980;DHT22;3016;50.308;8.258;2023-05-10T02:28:03;12.10;90.50
5980;DHT22;3016;50.308;8.258;2023-05-10T02:31:05;12.10;90.40
5980;DHT22;3016;50.308;8.258;2023-05-10T02:34:08;12.10;90.40
5980;DHT22;3016;50.308;8.258;2023-05-10T02:37:09;12.10;90.20
5980;DHT22;3016;50.308;8.258;2023-05-10T02:40:11;12.00;89.40
5980;DHT22;3016;50.308;8.258;2023-05-10T02:43:14;12.00;90.00
5980;DHT22;3016;50.308;8.258;2023-05-10T02:46:16;12.10;90.10
5980;DHT22;3016;50.308;8.258;2023-05-10T02:49:18;12.00;89.50
5980;DHT22;3016;50.308;8.258;2023-05-10T02:52:27;12.00;89.50
5980;DHT22;3016;50.308;8.258;2023-05-10T02:55:37;11.90;88.70
5980;DHT22;3016;50.308;8.258;2023-05-10T02:58:39;11.90;88.70
5980;DHT22;3016;50.308;8.258;2023-05-10T03:01:40;11.90;89.50
5980;DHT22;3016;50.308;8.258;2023-05-10T03:04:40;11.90;89.70
5980;DHT22;3016;50.308;8.258;2023-05-10T03:07:41;11.90;90.20
5980;DHT22;3016;50.308;8.258;2023-05-10T03:10:58;11.90;90.10
5980;DHT22;3016;50.308;8.258;2023-05-10T03:17:55;11.90;90.70
5980;DHT22;3016;50.308;8.258;2023-05-10T03:21:07;11.90;90.50
5980;DHT22;3016;50.308;8.258;2023-05-10T03:24:10;12.00;90.90
5980;DHT22;3016;50.308;8.258;2023-05-10T03:27:13;12.00;91.10
5980;DHT22;3016;50.308;8.258;2023-05-10T03:30:15;12.00;91.10
5980;DHT22;3016;50.308;8.258;2023-05-10T03:33:16;12.00;91.20
5980;DHT22;3016;50.308;8.258;2023-05-10T03:36:17;12.00;90.80
5980;DHT22;3016;50.308;8.258;2023-05-10T03:39:19;11.90;90.90
5980;DHT22;3016;50.308;8.258;2023-05-10T03:42:21;12.00;91.30
5980;DHT22;3016;50.308;8.258;2023-05-10T03:45:22;12.00;91.50
5980;DHT22;3016;50.308;8.258;2023-05-10T03:48:22;12.00;91.80
5980;DHT22;3016;50.308;8.258;2023-05-10T03:51:23;12.00;92.00
5980;DHT22;3016;50.308;8.258;2023-05-10T03:54:28;12.10;92.30
5980;DHT22;3016;50.308;8.258;2023-05-10T03:57:29;12.10;91.90
5980;DHT22;3016;50.308;8.258;2023-05-10T04:00:29;12.10;91.80
5980;DHT22;3016;50.308;8.258;2023-05-10T04:03:31;12.10;91.80
5980;DHT22;3016;50.308;8.258;2023-05-10T04:06:32;12.00;91.70
5980;DHT22;3016;50.308;8.258;2023-05-10T04:09:33;12.10;92.00
5980;DHT22;3016;50.308;8.258;2023-05-10T04:12:34;12.10;91.80
5980;DHT22;3016;50.308;8.258;2023-05-10T04:15:40;12.10;92.40
5980;DHT22;3016;50.308;8.258;2023-05-10T04:18:41;12.10;92.10
5980;DHT22;3016;50.308;8.258;2023-05-10T04:21:42;12.10;91.80
5980;DHT22;3016;50.308;8.258;2023-05-10T04:24:42;12.10;91.60
5980;DHT22;3016;50.308;8.258;2023-05-10T04:27:43;12.10;91.40
5980;DHT22;3016;50.308;8.258;2023-05-10T04:30:44;12.10;91.40
5980;DHT22;3016;50.308;8.258;2023-05-10T04:33:45;12.10;91.30
5980;DHT22;3016;50.308;8.258;2023-05-10T04:36:45;12.10;90.50
5980;DHT22;3016;50.308;8.258;2023-05-10T04:39:46;12.10;91.00
5980;DHT22;3016;50.308;8.258;2023-05-10T04:42:47;12.10;91.20
5980;DHT22;3016;50.308;8.258;2023-05-10T04:45:47;12.20;91.40
5980;DHT22;3016;50.308;8.258;2023-05-10T04:48:48;12.20;91.40
5980;DHT22;3016;50.308;8.258;2023-05-10T04:51:49;12.20;90.90
5980;DHT22;3016;50.308;8.258;2023-05-10T04:54:49;12.10;90.40
5980;DHT22;3016;50.308;8.258;2023-05-10T04:57:51;12.10;90.70
5980;DHT22;3016;50.308;8.258;2023-05-10T05:00:51;12.10;90.80
5980;DHT22;3016;50.308;8.258;2023-05-10T05:03:52;12.10;91.40
5980;DHT22;3016;50.308;8.258;2023-05-10T05:06:53;12.10;91.70
5980;DHT22;3016;50.308;8.258;2023-05-10T05:09:53;12.10;92.10
5980;DHT22;3016;50.308;8.258;2023-05-10T05:12:54;12.20;92.10
5980;DHT22;3016;50.308;8.258;2023-05-10T05:15:55;12.20;92.40
5980;DHT22;3016;50.308;8.258;2023-05-10T05:18:56;12.20;92.40
5980;DHT22;3016;50.308;8.258;2023-05-10T05:21:59;12.20;92.40
5980;DHT22;3016;50.308;8.258;2023-05-10T05:25:00;12.20;92.70
5980;DHT22;3016;50.308;8.258;2023-05-10T05:28:02;12.20;92.90
5980;DHT22;3016;50.308;8.258;2023-05-10T05:31:04;12.20;92.80
5980;DHT22;3016;50.308;8.258;2023-05-10T05:34:05;12.20;92.90
5980;DHT22;3016;50.308;8.258;2023-05-10T05:37:06;12.20;93.00
5980;DHT22;3016;50.308;8.258;2023-05-10T05:40:07;12.20;93.10
5980;DHT22;3016;50.308;8.258;2023-05-10T05:43:08;12.20;93.30
5980;DHT22;3016;50.308;8.258;2023-05-10T05:46:09;12.20;93.30
5980;DHT22;3016;50.308;8.258;2023-05-10T05:49:10;12.30;93.80
5980;DHT22;3016;50.308;8.258;2023-05-10T05:52:10;12.30;93.50
5980;DHT22;3016;50.308;8.258;2023-05-10T05:55:11;12.30;93.80
5980;DHT22;3016;50.308;8.258;2023-05-10T05:58:12;12.40;94.40
5980;DHT22;3016;50.308;8.258;2023-05-10T06:01:12;12.50;94.70
5980;DHT22;3016;50.308;8.258;2023-05-10T06:04:13;12.50;94.50
5980;DHT22;3016;50.308;8.258;2023-05-10T06:07:14;12.50;94.70
5980;DHT22;3016;50.308;8.258;2023-05-10T06:10:15;12.60;94.60
5980;DHT22;3016;50.308;8.258;2023-05-10T06:13:15;12.60;94.90
5980;DHT22;3016;50.308;8.258;2023-05-10T06:16:16;12.70;94.90
5980;DHT22;3016;50.308;8.258;2023-05-10T06:19:18;12.70;94.50
5980;DHT22;3016;50.308;8.258;2023-05-10T06:22:18;12.70;94.30
5980;DHT22;3016;50.308;8.258;2023-05-10T06:25:19;12.60;93.00
5980;DHT22;3016;50.308;8.258;2023-05-10T06:28:20;12.70;93.10
5980;DHT22;3016;50.308;8.258;2023-05-10T06:31:20;12.70;92.90
5980;DHT22;3016;50.308;8.258;2023-05-10T06:34:21;12.80;92.90
5980;DHT22;3016;50.308;8.258;2023-05-10T06:37:22;12.80;92.70
5980;DHT22;3016;50.308;8.258;2023-05-10T06:40:22;12.90;92.70
5980;DHT22;3016;50.308;8.258;2023-05-10T06:43:23;13.00;92.30
5980;DHT22;3016;50.308;8.258;2023-05-10T06:46:25;13.10;91.90
5980;DHT22;3016;50.308;8.258;2023-05-10T06:49:26;13.00;90.80
5980;DHT22;3016;50.308;8.258;2023-05-10T06:52:26;13.10;90.00
5980;DHT22;3016;50.308;8.258;2023-05-10T06:55:27;13.10;88.50
5980;DHT22;3016;50.308;8.258;2023-05-10T06:58:28;13.20;87.80
5980;DHT22;3016;50.308;8.258;2023-05-10T07:01:29;13.20;86.10
5980;DHT22;3016;50.308;8.258;2023-05-10T07:04:30;13.10;83.90
5980;DHT22;3016;50.308;8.258;2023-05-10T07:07:30;13.10;82.90
5980;DHT22;3016;50.308;8.258;2023-05-10T07:10:31;13.00;78.10
5980;DHT22;3016;50.308;8.258;2023-05-10T07:13:32;13.00;76.40
5980;DHT22;3016;50.308;8.258;2023-05-10T07:16:32;13.00;76.70
5980;DHT22;3016;50.308;8.258;2023-05-10T07:19:33;13.00;75.60
5980;DHT22;3016;50.308;8.258;2023-05-10T07:22:34;13.00;74.20
5980;DHT22;3016;50.308;8.258;2023-05-10T07:25:35;13.20;77.40
5980;DHT22;3016;50.308;8.258;2023-05-10T07:28:36;13.20;77.40
5980;DHT22;3016;50.308;8.258;2023-05-10T07:31:37;13.20;72.50
5980;DHT22;3016;50.308;8.258;2023-05-10T07:34:38;13.20;68.80
5980;DHT22;3016;50.308;8.258;2023-05-10T07:37:39;13.10;64.60
5980;DHT22;3016;50.308;8.258;2023-05-10T07:40:39;13.00;60.20
5980;DHT22;3016;50.308;8.258;2023-05-10T07:43:40;13.00;59.60
5980;DHT22;3016;50.308;8.258;2023-05-10T07:46:41;13.00;61.10
5980;DHT22;3016;50.308;8.258;2023-05-10T07:49:41;13.00;61.90
5980;DHT22;3016;50.308;8.258;2023-05-10T07:52:42;13.10;61.80
5980;DHT22;3016;50.308;8.258;2023-05-10T07:55:43;13.10;61.40
5980;DHT22;3016;50.308;8.258;2023-05-10T07:58:44;13.10;63.20
5980;DHT22;3016;50.308;8.258;2023-05-10T08:01:44;13.20;63.40
5980;DHT22;3016;50.308;8.258;2023-05-10T08:04:45;13.20;64.50
5980;DHT22;3016;50.308;8.258;2023-05-10T08:07:46;13.20;64.40
5980;DHT22;3016;50.308;8.258;2023-05-10T08:10:47;13.20;61.30
5980;DHT22;3016;50.308;8.258;2023-05-10T08:13:49;13.20;61.10
5980;DHT22;3016;50.308;8.258;2023-05-10T08:16:50;13.10;59.40
5980;DHT22;3016;50.308;8.258;2023-05-10T08:19:51;13.00;58.20
5980;DHT22;3016;50.308;8.258;2023-05-10T08:22:52;13.10;60.60
5980;DHT22;3016;50.308;8.258;2023-05-10T08:25:52;13.00;54.50
5980;DHT22;3016;50.308;8.258;2023-05-10T08:28:53;13.00;53.40
5980;DHT22;3016;50.308;8.258;2023-05-10T08:31:54;13.00;55.30
5980;DHT22;3016;50.308;8.258;2023-05-10T08:34:55;13.10;55.70
5980;DHT22;3016;50.308;8.258;2023-05-10T08:37:56;13.20;54.30
5980;DHT22;3016;50.308;8.258;2023-05-10T08:40:57;13.20;51.50
5980;DHT22;3016;50.308;8.258;2023-05-10T08:43:59;13.30;48.10
5980;DHT22;3016;50.308;8.258;2023-05-10T08:47:06;13.40;48.60
5980;DHT22;3016;50.308;8.258;2023-05-10T08:50:09;13.40;41.40
5980;DHT22;3016;50.308;8.258;2023-05-10T08:53:12;13.40;33.50
5980;DHT22;3016;50.308;8.258;2023-05-10T08:56:15;13.50;32.80
5980;DHT22;3016;50.308;8.258;2023-05-10T08:59:16;13.60;22.40
5980;DHT22;3016;50.308;8.258;2023-05-10T09:02:17;13.80;20.70
5980;DHT22;3016;50.308;8.258;2023-05-10T09:05:18;14.00;15.20
5980;DHT22;3016;50.308;8.258;2023-05-10T09:08:20;14.20;15.70
5980;DHT22;3016;50.308;8.258;2023-05-10T09:11:21;14.30;8.00
5980;DHT22;3016;50.308;8.258;2023-05-10T09:14:24;14.40;1.00
5980;DHT22;3016;50.308;8.258;2023-05-10T09:17:25;14.30;1.00
5980;DHT22;3016;50.308;8.258;2023-05-10T09:20:27;14.40;3.00
5980;DHT22;3016;50.308;8.258;2023-05-10T09:23:28;14.40;4.00
5980;DHT22;3016;50.308;8.258;2023-05-10T09:26:32;14.30;1.00
5980;DHT22;3016;50.308;8.258;2023-05-10T09:29:43;14.30;1.00
5980;DHT22;3016;50.308;8.258;2023-05-10T09:32:45;14.40;1.00
5980;DHT22;3016;50.308;8.258;2023-05-10T09:35:47;14.60;1.00
5980;DHT22;3016;50.308;8.258;2023-05-10T09:38:52;14.60;1.00
5980;DHT22;3016;50.308;8.258;2023-05-10T09:41:53;14.60;1.00
5980;DHT22;3016;50.308;8.258;2023-05-10T09:44:54;14.50;1.00
5980;DHT22;3016;50.308;8.258;2023-05-10T09:47:55;14.50;1.00
5980;DHT22;3016;50.308;8.258;2023-05-10T09:50:58;14.50;1.00
5980;DHT22;3016;50.308;8.258;2023-05-10T09:54:10;14.50;1.00
5980;DHT22;3016;50.308;8.258;2023-05-10T09:57:22;14.50;1.00
5980;DHT22;3016;50.308;8.258;2023-05-10T10:00:23;14.60;1.00
5980;DHT22;3016;50.308;8.258;2023-05-10T10:03:24;14.60;1.00
5980;DHT22;3016;50.308;8.258;2023-05-10T10:06:25;14.50;1.00
5980;DHT22;3016;50.308;8.258;2023-05-10T10:09:27;14.40;1.00
5980;DHT22;3016;50.308;8.258;2023-05-10T10:12:27;14.30;1.00
5980;DHT22;3016;50.308;8.258;2023-05-10T10:15:28;14.20;6.80
5980;DHT22;3016;50.308;8.258;2023-05-10T10:18:30;14.00;11.30
5980;DHT22;3016;50.308;8.258;2023-05-10T10:21:31;13.90;17.50
5980;DHT22;3016;50.308;8.258;2023-05-10T10:24:33;13.90;21.50
5980;DHT22;3016;50.308;8.258;2023-05-10T10:27:59;13.80;19.50
5980;DHT22;3016;50.308;8.258;2023-05-10T10:31:36;13.80;19.00
5980;DHT22;3016;50.308;8.258;2023-05-10T10:34:48;13.80;12.30
5980;DHT22;3016;50.308;8.258;2023-05-10T10:37:50;13.90;21.20
5980;DHT22;3016;50.308;8.258;2023-05-10T10:41:10;14.20;26.20
5980;DHT22;3016;50.308;8.258;2023-05-10T10:47:29;14.30;1.00
5980;DHT22;3016;50.308;8.258;2023-05-10T10:50:45;14.20;1.00
5980;DHT22;3016;50.308;8.258;2023-05-10T10:53:48;14.20;1.00
5980;DHT22;3016;50.308;8.258;2023-05-10T10:57:11;14.20;1.00
5980;DHT22;3016;50.308;8.258;2023-05-10T11:00:35;14.30;1.00
5980;DHT22;3016;50.308;8.258;2023-05-10T11:03:37;14.50;1.00
5980;DHT22;3016;50.308;8.258;2023-05-10T11:06:37;14.50;1.00
5980;DHT22;3016;50.308;8.258;2023-05-10T11:09:40;14.60;1.00
5980;DHT22;3016;50.308;8.258;2023-05-10T11:13:12;14.50;1.00
5980;DHT22;3016;50.308;8.258;2023-05-10T11:19:15;14.80;1.00
5980;DHT22;3016;50.308;8.258;2023-05-10T11:22:16;14.80;1.00
5980;DHT22;3016;50.308;8.258;2023-05-10T11:25:19;15.10;1.00
5980;DHT22;3016;50.308;8.258;2023-05-10T11:28:20;15.30;1.00
5980;DHT22;3016;50.308;8.258;2023-05-10T11:31:21;15.30;1.00
5980;DHT22;3016;50.308;8.258;2023-05-10T11:34:28;15.40;1.00
5980;DHT22;3016;50.308;8.258;2023-05-10T11:37:30;15.50;1.00
5980;DHT22;3016;50.308;8.258;2023-05-10T11:40:35;15.40;1.00
5980;DHT22;3016;50.308;8.258;2023-05-10T11:43:36;15.50;1.00
5980;DHT22;3016;50.308;8.258;2023-05-10T11:46:38;15.40;1.00
5980;DHT22;3016;50.308;8.258;2023-05-10T11:49:43;15.50;1.00
5980;DHT22;3016;50.308;8.258;2023-05-10T11:52:45;15.60;1.00
5980;DHT22;3016;50.308;8.258;2023-05-10T11:55:45;15.50;1.00
5980;DHT22;3016;50.308;8.258;2023-05-10T11:58:55;15.40;1.00
5980;DHT22;3016;50.308;8.258;2023-05-10T12:01:57;15.50;1.00
5980;DHT22;3016;50.308;8.258;2023-05-10T12:04:58;15.40;1.00
5980;DHT22;3016;50.308;8.258;2023-05-10T12:08:15;15.50;1.00
5980;DHT22;3016;50.308;8.258;2023-05-10T12:11:16;15.50;1.00
5980;DHT22;3016;50.308;8.258;2023-05-10T12:14:17;15.60;1.00
5980;DHT22;3016;50.308;8.258;2023-05-10T12:17:19;15.70;1.00
5980;DHT22;3016;50.308;8.258;2023-05-10T12:20:21;15.80;1.00
5980;DHT22;3016;50.308;8.258;2023-05-10T12:23:24;15.80;1.00
5980;DHT22;3016;50.308;8.258;2023-05-10T12:26:28;15.80;1.00
5980;DHT22;3016;50.308;8.258;2023-05-10T12:29:30;15.80;1.00
5980;DHT22;3016;50.308;8.258;2023-05-10T12:32:38;16.00;1.00
5980;DHT22;3016;50.308;8.258;2023-05-10T12:35:47;16.30;1.00
5980;DHT22;3016;50.308;8.258;2023-05-10T12:38:48;16.50;1.00
5980;DHT22;3016;50.308;8.258;2023-05-10T12:41:50;16.50;1.00
5980;DHT22;3016;50.308;8.258;2023-05-10T12:44:55;16.60;1.00
5980;DHT22;3016;50.308;8.258;2023-05-10T12:47:57;16.70;1.00
5980;DHT22;3016;50.308;8.258;2023-05-10T12:50:57;16.70;1.00
5980;DHT22;3016;50.308;8.258;2023-05-10T12:53:58;16.80;1.00
5980;DHT22;3016;50.308;8.258;2023-05-10T12:56:59;16.80;1.00
5980;DHT22;3016;50.308;8.258;2023-05-10T13:00:00;17.10;1.00
5980;DHT22;3016;50.308;8.258;2023-05-10T13:03:00;17.50;1.00
5980;DHT22;3016;50.308;8.258;2023-05-10T13:06:01;17.70;1.00
5980;DHT22;3016;50.308;8.258;2023-05-10T13:09:02;17.80;1.00
5980;DHT22;3016;50.308;8.258;2023-05-10T13:12:02;17.60;1.00
5980;DHT22;3016;50.308;8.258;2023-05-10T13:15:04;17.40;1.00
5980;DHT22;3016;50.308;8.258;2023-05-10T13:18:05;17.10;1.00
5980;DHT22;3016;50.308;8.258;2023-05-10T13:21:05;16.90;1.00
5980;DHT22;3016;50.308;8.258;2023-05-10T13:24:07;16.70;1.00
5980;DHT22;3016;50.308;8.258;2023-05-10T13:27:08;16.50;1.00
5980;DHT22;3016;50.308;8.258;2023-05-10T13:30:10;16.20;1.00
5980;DHT22;3016;50.308;8.258;2023-05-10T13:33:11;15.90;1.00
5980;DHT22;3016;50.308;8.258;2023-05-10T13:36:12;15.60;1.00
5980;DHT22;3016;50.308;8.258;2023-05-10T13:39:13;15.40;1.00
5980;DHT22;3016;50.308;8.258;2023-05-10T13:42:14;15.20;1.00
5980;DHT22;3016;50.308;8.258;2023-05-10T13:45:14;15.10;1.00
5980;DHT22;3016;50.308;8.258;2023-05-10T13:48:15;15.00;1.00
5980;DHT22;3016;50.308;8.258;2023-05-10T13:51:16;15.00;1.00
5980;DHT22;3016;50.308;8.258;2023-05-10T13:54:17;14.90;1.00
5980;DHT22;3016;50.308;8.258;2023-05-10T13:57:20;15.00;1.00
5980;DHT22;3016;50.308;8.258;2023-05-10T14:00:21;15.00;1.00
5980;DHT22;3016;50.308;8.258;2023-05-10T14:03:22;15.20;1.00
5980;DHT22;3016;50.308;8.258;2023-05-10T14:06:22;15.30;1.00
5980;DHT22;3016;50.308;8.258;2023-05-10T14:09:23;15.30;1.00
5980;DHT22;3016;50.308;8.258;2023-05-10T14:12:24;15.40;1.00
5980;DHT22;3016;50.308;8.258;2023-05-10T14:15:24;15.60;1.00
5980;DHT22;3016;50.308;8.258;2023-05-10T14:18:25;15.60;1.00
5980;DHT22;3016;50.308;8.258;2023-05-10T14:21:26;15.70;1.00
5980;DHT22;3016;50.308;8.258;2023-05-10T14:24:28;15.60;1.00
5980;DHT22;3016;50.308;8.258;2023-05-10T14:27:29;15.60;1.00
5980;DHT22;3016;50.308;8.258;2023-05-10T14:30:31;15.50;1.00
5980;DHT22;3016;50.308;8.258;2023-05-10T14:33:33;15.60;1.00
5980;DHT22;3016;50.308;8.258;2023-05-10T14:36:33;15.60;1.00
5980;DHT22;3016;50.308;8.258;2023-05-10T14:39:34;15.60;1.00
5980;DHT22;3016;50.308;8.258;2023-05-10T14:42:35;15.60;1.00
5980;DHT22;3016;50.308;8.258;2023-05-10T14:45:36;15.70;1.00
5980;DHT22;3016;50.308;8.258;2023-05-10T14:48:37;15.70;1.00
5980;DHT22;3016;50.308;8.258;2023-05-10T14:51:37;15.70;1.00
5980;DHT22;3016;50.308;8.258;2023-05-10T14:54:38;15.70;1.00
5980;DHT22;3016;50.308;8.258;2023-05-10T14:57:39;15.80;1.00
5980;DHT22;3016;50.308;8.258;2023-05-10T15:00:40;15.80;1.00
5980;DHT22;3016;50.308;8.258;2023-05-10T15:03:47;15.90;1.00
5980;DHT22;3016;50.308;8.258;2023-05-10T15:06:47;16.00;1.00
5980;DHT22;3016;50.308;8.258;2023-05-10T15:09:48;16.20;1.00
5980;DHT22;3016;50.308;8.258;2023-05-10T15:12:49;16.30;1.00
5980;DHT22;3016;50.308;8.258;2023-05-10T15:15:50;16.40;1.00
5980;DHT22;3016;50.308;8.258;2023-05-10T15:18:51;16.40;1.00
5980;DHT22;3016;50.308;8.258;2023-05-10T15:21:51;16.50;1.00
5980;DHT22;3016;50.308;8.258;2023-05-10T15:24:52;16.50;1.00
5980;DHT22;3016;50.308;8.258;2023-05-10T15:27:53;16.50;1.00
5980;DHT22;3016;50.308;8.258;2023-05-10T15:30:54;16.60;1.00
5980;DHT22;3016;50.308;8.258;2023-05-10T15:33:57;16.70;1.00
5980;DHT22;3016;50.308;8.258;2023-05-10T15:37:01;16.80;1.00
5980;DHT22;3016;50.308;8.258;2023-05-10T15:40:03;16.90;1.00
5980;DHT22;3016;50.308;8.258;2023-05-10T15:43:04;17.00;1.00
5980;DHT22;3016;50.308;8.258;2023-05-10T15:46:05;17.10;1.00
5980;DHT22;3016;50.308;8.258;2023-05-10T15:49:06;17.00;1.00
5980;DHT22;3016;50.308;8.258;2023-05-10T15:52:07;17.20;1.00
5980;DHT22;3016;50.308;8.258;2023-05-10T15:55:08;17.30;1.00
5980;DHT22;3016;50.308;8.258;2023-05-10T15:58:12;17.40;1.00
5980;DHT22;3016;50.308;8.258;2023-05-10T16:01:12;17.40;1.00
5980;DHT22;3016;50.308;8.258;2023-05-10T16:04:13;17.40;1.00
5980;DHT22;3016;50.308;8.258;2023-05-10T16:07:14;17.30;1.00
5980;DHT22;3016;50.308;8.258;2023-05-10T16:10:14;17.20;1.00
5980;DHT22;3016;50.308;8.258;2023-05-10T16:13:15;17.30;1.00
5980;DHT22;3016;50.308;8.258;2023-05-10T16:16:16;17.20;1.00
5980;DHT22;3016;50.308;8.258;2023-05-10T16:19:17;17.20;1.00
5980;DHT22;3016;50.308;8.258;2023-05-10T16:22:17;17.20;1.00
5980;DHT22;3016;50.308;8.258;2023-05-10T16:25:18;17.10;1.00
5980;DHT22;3016;50.308;8.258;2023-05-10T16:28:19;16.90;1.00
5980;DHT22;3016;50.308;8.258;2023-05-10T16:31:20;16.90;1.00
5980;DHT22;3016;50.308;8.258;2023-05-10T16:34:22;16.80;1.00
5980;DHT22;3016;50.308;8.258;2023-05-10T16:37:24;16.70;1.00
5980;DHT22;3016;50.308;8.258;2023-05-10T16:40:25;16.70;1.00
5980;DHT22;3016;50.308;8.258;2023-05-10T16:43:26;16.70;1.00
5980;DHT22;3016;50.308;8.258;2023-05-10T16:46:27;16.60;1.00
5980;DHT22;3016;50.308;8.258;2023-05-10T16:49:27;16.50;1.00
5980;DHT22;3016;50.308;8.258;2023-05-10T16:52:28;16.40;1.00
5980;DHT22;3016;50.308;8.258;2023-05-10T16:55:29;16.30;1.00
5980;DHT22;3016;50.308;8.258;2023-05-10T16:58:30;16.20;1.00
5980;DHT22;3016;50.308;8.258;2023-05-10T17:01:30;16.10;1.00
5980;DHT22;3016;50.308;8.258;2023-05-10T17:04:32;16.10;1.00
5980;DHT22;3016;50.308;8.258;2023-05-10T17:07:33;16.10;1.00
5980;DHT22;3016;50.308;8.258;2023-05-10T17:10:34;16.00;1.00
5980;DHT22;3016;50.308;8.258;2023-05-10T17:13:35;15.90;1.00
5980;DHT22;3016;50.308;8.258;2023-05-10T17:16:38;15.80;1.00
5980;DHT22;3016;50.308;8.258;2023-05-10T17:19:38;15.80;1.00
5980;DHT22;3016;50.308;8.258;2023-05-10T17:22:40;15.60;1.00
5980;DHT22;3016;50.308;8.258;2023-05-10T17:25:40;15.50;1.00
5980;DHT22;3016;50.308;8.258;2023-05-10T17:28:41;15.40;1.00
5980;DHT22;3016;50.308;8.258;2023-05-10T17:31:42;15.40;1.00
5980;DHT22;3016;50.308;8.258;2023-05-10T17:34:42;15.40;1.00
5980;DHT22;3016;50.308;8.258;2023-05-10T17:37:43;15.30;1.00
5980;DHT22;3016;50.308;8.258;2023-05-10T17:40:44;15.20;1.00
5980;DHT22;3016;50.308;8.258;2023-05-10T17:43:45;15.10;1.00
5980;DHT22;3016;50.308;8.258;2023-05-10T17:46:46;15.10;1.00
5980;DHT22;3016;50.308;8.258;2023-05-10T17:49:47;15.10;1.00
5980;DHT22;3016;50.308;8.258;2023-05-10T17:52:47;15.00;1.00
5980;DHT22;3016;50.308;8.258;2023-05-10T17:55:50;14.80;1.00
5980;DHT22;3016;50.308;8.258;2023-05-10T17:58:51;14.70;1.00
5980;DHT22;3016;50.308;8.258;2023-05-10T18:01:52;14.60;1.00
5980;DHT22;3016;50.308;8.258;2023-05-10T18:04:52;14.60;1.00
5980;DHT22;3016;50.308;8.258;2023-05-10T18:07:53;14.50;1.00
5980;DHT22;3016;50.308;8.258;2023-05-10T18:10:53;14.50;1.00
5980;DHT22;3016;50.308;8.258;2023-05-10T18:13:54;14.50;1.00
5980;DHT22;3016;50.308;8.258;2023-05-10T18:16:55;14.40;1.00
5980;DHT22;3016;50.308;8.258;2023-05-10T18:19:56;14.40;1.00
5980;DHT22;3016;50.308;8.258;2023-05-10T18:22:56;14.40;1.00
5980;DHT22;3016;50.308;8.258;2023-05-10T18:25:57;14.40;1.00
5980;DHT22;3016;50.308;8.258;2023-05-10T18:28:58;14.30;1.00
5980;DHT22;3016;50.308;8.258;2023-05-10T18:31:59;14.30;1.00
5980;DHT22;3016;50.308;8.258;2023-05-10T18:34:59;14.30;1.00
5980;DHT22;3016;50.308;8.258;2023-05-10T18:38:01;14.30;1.00
5980;DHT22;3016;50.308;8.258;2023-05-10T18:41:02;14.30;1.00
5980;DHT22;3016;50.308;8.258;2023-05-10T18:44:03;14.30;1.00
5980;DHT22;3016;50.308;8.258;2023-05-10T18:47:04;14.30;1.00
5980;DHT22;3016;50.308;8.258;2023-05-10T18:50:05;14.30;1.00
5980;DHT22;3016;50.308;8.258;2023-05-10T18:53:06;14.30;1.00
5980;DHT22;3016;50.308;8.258;2023-05-10T18:56:07;14.20;1.00
5980;DHT22;3016;50.308;8.258;2023-05-10T18:59:07;14.20;1.00
5980;DHT22;3016;50.308;8.258;2023-05-10T19:02:08;14.20;1.00
5980;DHT22;3016;50.308;8.258;2023-05-10T19:05:09;14.20;1.00
5980;DHT22;3016;50.308;8.258;2023-05-10T19:08:10;14.10;1.00
5980;DHT22;3016;50.308;8.258;2023-05-10T19:11:10;14.10;1.00
5980;DHT22;3016;50.308;8.258;2023-05-10T19:14:11;14.00;1.00
5980;DHT22;3016;50.308;8.258;2023-05-10T19:17:12;13.90;1.00
5980;DHT22;3016;50.308;8.258;2023-05-10T19:20:13;13.80;1.00
5980;DHT22;3016;50.308;8.258;2023-05-10T19:23:13;13.80;1.00
5980;DHT22;3016;50.308;8.258;2023-05-10T19:26:14;13.70;3.30
5980;DHT22;3016;50.308;8.258;2023-05-10T19:29:15;13.70;6.80
5980;DHT22;3016;50.308;8.258;2023-05-10T19:32:15;13.70;8.20
5980;DHT22;3016;50.308;8.258;2023-05-10T19:35:16;13.70;9.40
5980;DHT22;3016;50.308;8.258;2023-05-10T19:38:23;13.60;10.70
5980;DHT22;3016;50.308;8.258;2023-05-10T19:41:24;13.50;11.90
5980;DHT22;3016;50.308;8.258;2023-05-10T19:44:25;13.50;14.20
5980;DHT22;3016;50.308;8.258;2023-05-10T19:47:26;13.40;17.10
5980;DHT22;3016;50.308;8.258;2023-05-10T19:50:26;13.40;16.80
5980;DHT22;3016;50.308;8.258;2023-05-10T19:53:27;13.30;17.00
5980;DHT22;3016;50.308;8.258;2023-05-10T19:56:28;13.30;19.00
5980;DHT22;3016;50.308;8.258;2023-05-10T19:59:29;13.30;19.80
5980;DHT22;3016;50.308;8.258;2023-05-10T20:02:30;13.20;19.80
5980;DHT22;3016;50.308;8.258;2023-05-10T20:05:30;13.20;20.50
5980;DHT22;3016;50.308;8.258;2023-05-10T20:08:31;13.20;19.80
5980;DHT22;3016;50.308;8.258;2023-05-10T20:11:32;13.20;21.70
5980;DHT22;3016;50.308;8.258;2023-05-10T20:14:33;13.20;19.90
5980;DHT22;3016;50.308;8.258;2023-05-10T20:17:34;13.20;21.30
5980;DHT22;3016;50.308;8.258;2023-05-10T20:20:35;13.20;23.20
5980;DHT22;3016;50.308;8.258;2023-05-10T20:23:36;13.10;24.00
5980;DHT22;3016;50.308;8.258;2023-05-10T20:26:37;13.10;25.50
5980;DHT22;3016;50.308;8.258;2023-05-10T20:29:37;13.00;25.40